createdAt,value
2022-08-05T00:00:19.721Z,3.63
2022-08-05T00:02:51.089Z,3.10
2022-08-05T00:06:01.782Z,2.60
2022-08-05T00:08:32.432Z,4.97
2022-08-05T00:10:55.709Z,3.70
2022-08-05T00:13:38.223Z,3.40
2022-08-05T00:16:08.919Z,2.37
2022-08-05T00:18:37.994Z,4.73
2022-08-05T00:21:06.796Z,3.17
2022-08-05T00:23:46.307Z,2.00
2022-08-05T00:26:20.179Z,2.10
2022-08-05T00:28:46.630Z,2.73
2022-08-05T00:31:15.765Z,2.70
2022-08-05T00:34:53.477Z,3.13
2022-08-05T00:37:10.959Z,3.50
2022-08-05T00:39:15.128Z,2.90
2022-08-05T00:41:51.460Z,3.83
2022-08-05T00:44:19.272Z,5.47
2022-08-05T00:46:47.377Z,5.07
2022-08-05T00:49:20.447Z,3.70
2022-08-05T00:51:50.292Z,4.27
2022-08-05T00:56:34.760Z,3.97
2022-08-05T00:59:01.941Z,6.13
2022-08-05T01:01:42.984Z,4.53
2022-08-05T01:04:15.999Z,4.00
2022-08-05T01:06:48.898Z,6.17
2022-08-05T01:09:20.290Z,6.00
2022-08-05T01:11:50.759Z,3.90
2022-08-05T01:14:27.826Z,6.40
2022-08-05T01:17:25.876Z,4.03
2022-08-05T01:20:03.674Z,4.67
2022-08-05T01:22:30.656Z,4.87
2022-08-05T01:25:16.451Z,3.57
2022-08-05T01:28:13.108Z,3.60
2022-08-05T01:30:50.606Z,2.20
2022-08-05T01:33:26.369Z,3.17
2022-08-05T01:35:57.498Z,1.93
2022-08-05T01:38:29.303Z,3.40
2022-08-05T01:41:01.796Z,2.70
2022-08-05T01:43:30.132Z,3.20
2022-08-05T01:45:57.631Z,4.20
2022-08-05T01:48:27.171Z,2.83
2022-08-05T01:50:56.687Z,3.87
2022-08-05T01:53:54.640Z,4.20
2022-08-05T01:56:13.357Z,3.30
2022-08-05T01:59:02.492Z,3.37
2022-08-05T02:01:32.133Z,2.70
2022-08-05T02:04:08.975Z,4.00
2022-08-05T02:06:38.768Z,2.73
2022-08-05T02:09:06.446Z,5.57
2022-08-05T02:11:42.527Z,4.17
2022-08-05T02:14:27.671Z,5.03
2022-08-05T02:16:59.016Z,5.20
2022-08-05T02:19:28.192Z,5.40
2022-08-05T02:22:00.861Z,5.70
2022-08-05T02:24:34.249Z,5.73
2022-08-05T02:27:10.171Z,6.40
2022-08-05T02:29:59.233Z,5.87
2022-08-05T02:32:31.365Z,6.53
2022-08-05T02:35:13.745Z,5.97
2022-08-05T02:37:47.634Z,5.33
2022-08-05T02:40:16.913Z,6.40
2022-08-05T02:42:53.094Z,6.43
2022-08-05T02:45:23.832Z,6.27
2022-08-05T02:48:06.480Z,6.50
2022-08-05T02:50:43.626Z,7.67
2022-08-05T02:53:18.719Z,6.50
2022-08-05T02:55:59.710Z,6.13
2022-08-05T02:58:29.985Z,7.70
2022-08-05T03:00:58.845Z,8.10
2022-08-05T03:03:28.038Z,5.67
2022-08-05T03:06:54.301Z,7.47
2022-08-05T03:08:52.271Z,8.30
2022-08-05T03:11:54.329Z,7.40
2022-08-05T03:14:07.873Z,7.33
2022-08-05T03:16:35.769Z,5.87
2022-08-05T03:19:03.446Z,6.33
2022-08-05T03:21:41.382Z,5.27
2022-08-05T03:24:09.537Z,3.53
2022-08-05T03:26:39.836Z,3.13
2022-08-05T03:29:06.299Z,3.07
2022-08-05T03:31:57.150Z,1.83
2022-08-05T03:34:27.887Z,1.97
2022-08-05T03:36:55.263Z,2.50
2022-08-05T03:39:27.024Z,1.50
2022-08-05T03:41:56.126Z,1.10
2022-08-05T03:44:23.225Z,1.70
2022-08-05T03:46:49.722Z,1.00
2022-08-05T03:49:16.343Z,1.00
2022-08-05T03:52:38.511Z,1.83
2022-08-05T03:55:52.226Z,0.90
2022-08-05T03:57:41.341Z,2.97
2022-08-05T04:00:15.907Z,0.73
2022-08-05T04:02:57.903Z,1.20
2022-08-05T04:05:33.813Z,1.53
2022-08-05T04:08:03.386Z,0.63
2022-08-05T04:10:37.910Z,1.27
2022-08-05T04:13:06.746Z,1.80
2022-08-05T04:15:36.493Z,1.13
2022-08-05T04:18:06.772Z,1.73
2022-08-05T04:20:33.950Z,1.27
2022-08-05T04:23:00.508Z,1.37
2022-08-05T04:25:56.966Z,1.80
2022-08-05T04:28:14.128Z,1.13
2022-08-05T04:30:41.542Z,1.80
2022-08-05T04:33:09.500Z,1.57
2022-08-05T04:36:10.945Z,1.07
2022-08-05T04:38:22.343Z,1.10
2022-08-05T04:41:06.620Z,1.10
2022-08-05T04:43:33.980Z,1.23
2022-08-05T04:46:00.975Z,1.90
2022-08-05T04:48:28.374Z,1.17
2022-08-05T04:51:02.437Z,1.47
2022-08-05T04:53:33.581Z,1.60
2022-08-05T04:56:32.998Z,1.00
2022-08-05T04:58:48.183Z,2.37
2022-08-05T05:01:14.675Z,1.47
2022-08-05T05:04:00.281Z,1.10
2022-08-05T05:06:35.900Z,1.43
2022-08-05T05:09:07.265Z,1.00
2022-08-05T05:11:52.788Z,1.17
2022-08-05T05:14:31.273Z,1.10
2022-08-05T05:16:59.823Z,1.00
2022-08-05T05:19:27.409Z,1.27
2022-08-05T05:22:03.599Z,1.43
2022-08-05T05:24:57.758Z,1.40
2022-08-05T05:27:44.330Z,1.70
2022-08-05T05:30:28.764Z,1.63
2022-08-05T05:33:01.025Z,2.40
2022-08-05T05:35:34.216Z,1.73
2022-08-05T05:38:09.388Z,1.37
2022-08-05T05:40:48.364Z,1.37
2022-08-05T05:43:22.315Z,1.27
2022-08-05T05:46:03.962Z,1.10
2022-08-05T05:48:31.927Z,1.17
2022-08-05T05:50:58.315Z,1.60
2022-08-05T05:53:24.707Z,0.93
2022-08-05T05:56:01.404Z,1.20
2022-08-05T05:58:31.681Z,1.60
2022-08-05T06:01:12.057Z,1.20
2022-08-05T06:03:53.819Z,1.33
2022-08-05T06:06:27.909Z,1.33
2022-08-05T06:08:58.098Z,2.50
2022-08-05T06:11:24.651Z,1.37
2022-08-05T06:13:54.231Z,2.10
2022-08-05T06:16:28.980Z,2.47
2022-08-05T06:19:00.079Z,1.03
2022-08-05T06:21:36.855Z,1.87
2022-08-05T06:24:06.097Z,1.97
2022-08-05T06:26:35.961Z,1.70
2022-08-05T06:29:23.836Z,1.90
2022-08-05T06:31:50.613Z,1.50
2022-08-05T06:34:17.319Z,1.90
2022-08-05T06:36:57.954Z,2.67
2022-08-05T06:39:27.067Z,1.70
2022-08-05T06:41:58.851Z,1.30
2022-08-05T06:44:25.633Z,2.10
2022-08-05T06:46:52.587Z,1.60
2022-08-05T06:49:21.544Z,1.30
2022-08-05T06:52:07.844Z,2.50
2022-08-05T06:54:54.280Z,1.73
2022-08-05T06:58:03.961Z,1.80
2022-08-05T07:00:09.760Z,2.03
2022-08-05T07:02:46.801Z,2.20
2022-08-05T07:05:18.751Z,1.70
2022-08-05T07:07:48.757Z,1.40
2022-08-05T07:10:16.508Z,1.50
2022-08-05T07:13:01.975Z,1.50
2022-08-05T07:16:01.707Z,1.60
2022-08-05T07:18:31.413Z,1.53
2022-08-05T07:20:58.211Z,1.30
2022-08-05T07:23:31.359Z,1.40
2022-08-05T07:25:57.747Z,1.00
2022-08-05T07:28:25.216Z,1.43
2022-08-05T07:30:54.882Z,2.03
2022-08-05T07:33:35.259Z,1.43
2022-08-05T07:36:20.862Z,1.43
2022-08-05T07:38:49.002Z,2.37
2022-08-05T07:42:12.993Z,1.20
2022-08-05T07:44:18.667Z,1.30
2022-08-05T07:46:49.332Z,1.27
2022-08-05T07:49:18.317Z,0.90
2022-08-05T07:51:53.938Z,1.80
2022-08-05T07:54:26.574Z,1.00
2022-08-05T07:57:01.879Z,1.43
2022-08-05T07:59:41.084Z,1.47
2022-08-05T08:02:15.809Z,1.13
2022-08-05T08:04:45.032Z,1.30
2022-08-05T08:07:12.173Z,1.17
2022-08-05T08:09:38.621Z,0.70
2022-08-05T08:12:13.600Z,1.07
2022-08-05T08:14:47.194Z,0.70
2022-08-05T08:17:15.738Z,0.63
2022-08-05T08:20:20.973Z,0.87
2022-08-05T08:22:30.562Z,1.30
2022-08-05T08:25:03.341Z,0.70
2022-08-05T08:27:40.235Z,1.17
2022-08-05T08:30:18.966Z,1.50
2022-08-05T08:32:47.716Z,0.70
2022-08-05T08:35:17.616Z,1.00
2022-08-05T08:37:45.683Z,1.33
2022-08-05T08:40:20.023Z,0.83
2022-08-05T08:42:52.954Z,1.13
2022-08-05T08:45:26.692Z,0.90
2022-08-05T08:48:12.497Z,1.00
2022-08-05T08:51:03.650Z,1.67
2022-08-05T08:53:36.990Z,1.53
2022-08-05T08:56:06.281Z,0.97
2022-08-05T08:58:37.593Z,0.60
2022-08-05T09:01:15.556Z,1.33
2022-08-05T09:03:46.271Z,1.10
2022-08-05T09:06:18.476Z,1.70
2022-08-05T09:08:47.422Z,0.90
2022-08-05T09:11:15.243Z,0.93
2022-08-05T09:14:09.166Z,1.00
2022-08-05T09:16:29.971Z,1.60
2022-08-05T09:18:57.214Z,1.00
2022-08-05T09:22:22.531Z,1.17
2022-08-05T09:24:15.587Z,1.60
2022-08-05T09:26:43.559Z,1.07
2022-08-05T09:29:10.302Z,0.80
2022-08-05T09:32:41.919Z,0.70
2022-08-05T09:34:23.408Z,1.67
2022-08-05T09:36:55.377Z,1.60
2022-08-05T09:39:24.698Z,1.37
2022-08-05T09:42:08.511Z,0.97
2022-08-05T09:44:37.920Z,1.17
2022-08-05T09:47:12.682Z,1.20
2022-08-05T09:50:01.297Z,0.80
2022-08-05T09:52:28.959Z,1.73
2022-08-05T09:54:59.286Z,1.63
2022-08-05T09:57:39.419Z,1.30
2022-08-05T10:00:13.613Z,1.43
2022-08-05T10:02:48.324Z,0.73
2022-08-05T10:05:24.538Z,1.47
2022-08-05T10:08:35.171Z,1.43
2022-08-05T10:10:54.678Z,1.80
2022-08-05T10:13:47.313Z,1.00
2022-08-05T10:16:41.635Z,0.93
2022-08-05T10:19:23.668Z,1.13
2022-08-05T10:22:09.064Z,1.60
2022-08-05T10:24:42.206Z,1.40
2022-08-05T10:27:14.289Z,1.20
2022-08-05T10:30:41.464Z,0.70
2022-08-05T10:32:54.989Z,1.27
2022-08-05T10:35:17.783Z,1.90
2022-08-05T10:37:45.297Z,1.70
2022-08-05T10:40:35.535Z,1.00
2022-08-05T10:43:30.818Z,0.97
2022-08-05T10:46:08.436Z,1.43
2022-08-05T10:48:56.551Z,1.43
2022-08-05T10:51:29.144Z,1.03
2022-08-05T10:54:05.857Z,1.73
2022-08-05T10:56:52.843Z,1.10
2022-08-05T11:00:04.429Z,1.53
2022-08-05T11:02:37.536Z,1.07
2022-08-05T11:05:04.706Z,1.80
2022-08-05T11:07:32.880Z,2.03
2022-08-05T11:10:27.261Z,1.73
2022-08-05T11:12:55.623Z,2.00
2022-08-05T11:15:59.984Z,1.13
2022-08-05T11:18:30.251Z,1.37
2022-08-05T11:20:59.822Z,1.57
2022-08-05T11:24:02.253Z,1.20
2022-08-05T11:26:27.998Z,1.23
2022-08-05T11:28:58.738Z,1.40
2022-08-05T11:31:58.243Z,1.37
2022-08-05T11:34:39.160Z,1.80
2022-08-05T11:38:26.610Z,0.90
2022-08-05T11:40:00.788Z,1.70
2022-08-05T11:42:33.151Z,1.60
2022-08-05T11:45:14.569Z,1.80
2022-08-05T11:47:54.723Z,2.23
2022-08-05T11:50:21.662Z,2.30
2022-08-05T11:52:48.472Z,1.33
2022-08-05T11:55:15.719Z,1.60
2022-08-05T11:58:09.676Z,1.23
2022-08-05T12:00:32.642Z,1.63
2022-08-05T12:03:28.930Z,1.70
2022-08-05T12:06:02.797Z,2.00
2022-08-05T12:08:31.433Z,1.60
2022-08-05T12:11:05.642Z,1.60
2022-08-05T12:13:48.689Z,2.10
2022-08-05T12:16:19.339Z,1.30
2022-08-05T12:18:49.449Z,1.67
2022-08-05T12:21:26.796Z,1.97
2022-08-05T12:24:11.807Z,1.70
2022-08-05T12:26:43.870Z,1.40
2022-08-05T12:29:16.241Z,1.33
2022-08-05T12:31:55.490Z,1.40
2022-08-05T12:34:28.320Z,1.87
2022-08-05T12:36:56.901Z,1.40
2022-08-05T12:39:27.802Z,1.50
2022-08-05T12:42:01.638Z,0.80
2022-08-05T12:44:33.880Z,2.10
2022-08-05T12:47:02.055Z,1.83
2022-08-05T12:50:03.594Z,2.73
2022-08-05T12:52:38.167Z,1.70
2022-08-05T12:55:25.519Z,2.30
2022-08-05T12:58:51.272Z,1.83
2022-08-05T13:02:03.554Z,1.50
2022-08-05T13:03:31.927Z,2.70
2022-08-05T13:05:59.558Z,2.10
2022-08-05T13:08:29.893Z,1.70
2022-08-05T13:11:01.182Z,1.87
2022-08-05T13:14:06.217Z,2.30
2022-08-05T13:16:16.751Z,3.47
2022-08-05T13:18:57.597Z,3.00
2022-08-05T13:21:28.426Z,4.47
2022-08-05T13:24:05.896Z,4.10
2022-08-05T13:26:35.303Z,4.27
2022-08-05T13:29:01.759Z,5.70
2022-08-05T13:31:33.847Z,5.17
2022-08-05T13:34:25.078Z,6.10
2022-08-05T13:36:53.552Z,5.30
2022-08-05T13:40:13.936Z,5.93
2022-08-05T13:42:07.102Z,5.07
2022-08-05T13:44:34.786Z,6.10
2022-08-05T13:47:08.601Z,7.57
2022-08-05T13:49:36.036Z,6.23
2022-08-05T13:52:14.129Z,6.80
2022-08-05T13:54:40.997Z,7.63
2022-08-05T13:57:11.798Z,8.17
2022-08-05T13:59:55.568Z,7.23
2022-08-05T14:02:26.535Z,7.70
2022-08-05T14:05:11.531Z,8.13
2022-08-05T14:08:01.175Z,10.73
2022-08-05T14:10:28.739Z,7.60
2022-08-05T14:12:57.748Z,9.53
2022-08-05T14:16:08.864Z,9.47
2022-08-05T14:18:15.054Z,9.47
2022-08-05T14:20:47.179Z,10.97
2022-08-05T14:23:14.729Z,11.50
2022-08-05T14:25:54.008Z,9.97
2022-08-05T14:28:26.059Z,10.97
2022-08-05T14:30:53.455Z,10.00
2022-08-05T14:33:22.457Z,10.33
2022-08-05T14:35:50.713Z,10.40
2022-08-05T14:38:32.064Z,9.70
2022-08-05T14:41:00.673Z,10.87
2022-08-05T14:43:57.567Z,9.43
2022-08-05T14:46:13.551Z,8.10
2022-08-05T14:48:40.013Z,8.37
2022-08-05T14:51:06.530Z,12.10
2022-08-05T14:53:34.986Z,8.90
2022-08-05T14:56:11.606Z,8.70
2022-08-05T14:58:38.511Z,7.90
2022-08-05T15:01:15.980Z,7.07
2022-08-05T15:03:42.732Z,7.90
2022-08-05T15:06:14.942Z,6.63
2022-08-05T15:08:59.170Z,5.60
2022-08-05T15:11:50.884Z,7.97
2022-08-05T15:14:34.854Z,5.50
2022-08-05T15:17:07.911Z,4.73
2022-08-05T15:19:41.083Z,4.37
2022-08-05T15:22:15.953Z,3.43
2022-08-05T15:24:42.535Z,4.33
2022-08-05T15:27:09.420Z,4.07
2022-08-05T15:29:41.851Z,4.00
2022-08-05T15:32:08.956Z,3.90
2022-08-05T15:34:35.382Z,1.83
2022-08-05T15:37:06.454Z,2.13
2022-08-05T15:41:04.037Z,1.60
2022-08-05T15:42:50.136Z,1.20
2022-08-05T15:45:11.277Z,1.00
2022-08-05T15:47:39.025Z,1.40
2022-08-05T15:50:07.304Z,0.70
2022-08-05T15:52:52.641Z,0.80
2022-08-05T15:55:24.691Z,1.20
2022-08-05T15:57:52.126Z,1.50
2022-08-05T16:00:25.771Z,0.97
2022-08-05T16:02:57.856Z,1.00
2022-08-05T16:05:28.496Z,0.63
2022-08-05T16:07:55.085Z,1.07
2022-08-05T16:10:25.463Z,0.70
2022-08-05T16:12:53.648Z,0.87
2022-08-05T16:15:23.018Z,1.00
2022-08-05T16:17:57.437Z,1.00
2022-08-05T16:20:25.175Z,0.60
2022-08-05T16:22:51.623Z,0.90
2022-08-05T16:25:18.202Z,0.90
2022-08-05T16:28:00.236Z,1.00
2022-08-05T16:30:32.249Z,1.20
2022-08-05T16:32:59.636Z,0.83
2022-08-05T16:35:28.611Z,1.07
2022-08-05T16:38:16.316Z,0.83
2022-08-05T16:40:51.831Z,1.07
2022-08-05T16:43:27.564Z,0.90
2022-08-05T16:46:05.136Z,0.70
2022-08-05T16:48:38.363Z,1.10
2022-08-05T16:51:09.276Z,0.70
2022-08-05T16:54:04.738Z,1.03
2022-08-05T16:56:25.600Z,1.43
2022-08-05T16:58:52.251Z,1.67
2022-08-05T17:01:19.174Z,1.97
2022-08-05T17:03:46.492Z,1.07
2022-08-05T17:06:13.441Z,2.33
2022-08-05T17:08:53.229Z,1.17
2022-08-05T17:11:23.348Z,0.90
2022-08-05T17:13:54.809Z,1.00
2022-08-05T17:16:36.802Z,0.97
2022-08-05T17:19:07.437Z,0.53
2022-08-05T17:21:36.972Z,1.00
2022-08-05T17:24:18.696Z,0.90
2022-08-05T17:26:55.850Z,0.60
2022-08-05T17:29:33.444Z,0.90
2022-08-05T17:32:06.616Z,0.70
2022-08-05T17:34:34.908Z,0.50
2022-08-05T17:37:01.510Z,1.03
2022-08-05T17:39:33.156Z,0.70
2022-08-05T17:42:17.766Z,0.50
2022-08-05T17:44:50.303Z,1.17
2022-08-05T17:47:21.877Z,0.50
2022-08-05T17:49:52.149Z,0.97
2022-08-05T17:52:30.387Z,1.20
2022-08-05T17:54:57.667Z,0.73
2022-08-05T17:57:24.458Z,1.27
2022-08-05T17:59:59.807Z,1.27
2022-08-05T18:02:31.638Z,1.37
2022-08-05T18:04:58.759Z,1.07
2022-08-05T18:07:25.318Z,1.00
2022-08-05T18:10:02.019Z,0.80
2022-08-05T18:12:35.469Z,1.57
2022-08-05T18:15:01.908Z,1.13
2022-08-05T18:18:00.904Z,0.90
2022-08-05T18:20:15.386Z,1.33
2022-08-05T18:22:54.187Z,0.70
2022-08-05T18:25:20.790Z,1.20
2022-08-05T18:27:52.369Z,1.30
2022-08-05T18:30:19.062Z,1.30
2022-08-05T18:33:00.451Z,1.40
2022-08-05T18:36:00.043Z,1.30
2022-08-05T18:38:16.396Z,0.87
2022-08-05T18:41:55.147Z,1.47
2022-08-05T18:43:37.884Z,0.70
2022-08-05T18:46:06.965Z,1.27
2022-08-05T18:48:41.641Z,0.90
2022-08-05T18:52:02.897Z,0.97
2022-08-05T18:54:14.010Z,1.17
2022-08-05T18:56:40.471Z,1.37
2022-08-05T18:59:43.558Z,0.93
2022-08-05T19:01:58.519Z,0.93
2022-08-05T19:04:26.130Z,0.80
2022-08-05T19:06:53.577Z,0.70
2022-08-05T19:09:20.533Z,1.30
2022-08-05T19:11:59.999Z,1.70
2022-08-05T19:14:38.030Z,1.10
2022-08-05T19:17:14.313Z,1.80
2022-08-05T19:19:46.949Z,0.97
2022-08-05T19:22:17.386Z,1.73
2022-08-05T19:24:54.365Z,0.93
2022-08-05T19:27:23.946Z,1.50
2022-08-05T19:29:51.798Z,1.30
2022-08-05T19:32:18.490Z,1.40
2022-08-05T19:34:54.533Z,1.10
2022-08-05T19:37:47.015Z,1.20
2022-08-05T19:40:10.678Z,1.17
2022-08-05T19:42:38.919Z,1.53
2022-08-05T19:45:07.070Z,1.10
2022-08-05T19:47:37.614Z,1.97
2022-08-05T19:50:04.699Z,1.30
2022-08-05T19:52:34.062Z,1.33
2022-08-05T19:55:06.882Z,1.33
2022-08-05T19:57:47.498Z,1.30
2022-08-05T20:00:20.760Z,1.40
2022-08-05T20:02:47.297Z,1.67
2022-08-05T20:05:16.523Z,1.20
2022-08-05T20:07:54.996Z,1.63
2022-08-05T20:10:24.466Z,1.63
2022-08-05T20:12:51.690Z,1.77
2022-08-05T20:15:48.231Z,1.80
2022-08-05T20:18:10.368Z,1.07
2022-08-05T20:20:55.964Z,1.87
2022-08-05T20:23:39.873Z,1.23
2022-08-05T20:26:16.451Z,0.97
2022-08-05T20:28:53.843Z,1.00
2022-08-05T20:31:37.001Z,0.80
2022-08-05T20:34:09.920Z,0.87
2022-08-05T20:36:36.419Z,1.60
2022-08-05T20:39:05.601Z,0.97
2022-08-05T20:41:44.439Z,1.33
2022-08-05T20:44:30.185Z,1.50
2022-08-05T20:47:03.206Z,1.90
2022-08-05T20:49:30.078Z,1.23
2022-08-05T20:52:04.879Z,1.20
2022-08-05T20:54:58.975Z,1.30
2022-08-05T20:57:42.372Z,1.93
2022-08-05T21:00:40.221Z,0.87
2022-08-05T21:03:00.054Z,1.07
2022-08-05T21:05:38.113Z,0.60
2022-08-05T21:08:14.322Z,1.20
2022-08-05T21:10:48.588Z,1.07
2022-08-05T21:13:25.983Z,0.77
2022-08-05T21:15:54.566Z,1.53
2022-08-05T21:18:23.322Z,1.23
2022-08-05T21:20:49.892Z,2.00
2022-08-05T21:23:16.315Z,1.17
2022-08-05T21:25:44.685Z,0.80
2022-08-05T21:28:11.973Z,1.00
2022-08-05T21:30:39.885Z,0.97
2022-08-05T21:33:21.866Z,1.07
2022-08-05T21:35:58.224Z,0.80
2022-08-05T21:38:27.567Z,1.20
2022-08-05T21:40:54.113Z,0.60
2022-08-05T21:43:24.646Z,0.67
2022-08-05T21:45:57.736Z,1.40
2022-08-05T21:48:28.521Z,0.50
2022-08-05T21:50:55.197Z,1.33
2022-08-05T21:53:27.087Z,0.70
2022-08-05T21:56:04.689Z,0.50
2022-08-05T21:58:36.908Z,0.43
2022-08-05T22:01:10.810Z,0.60
2022-08-05T22:03:52.168Z,0.40
2022-08-05T22:06:23.116Z,0.80
2022-08-05T22:09:01.905Z,1.13
2022-08-05T22:11:40.553Z,0.60
2022-08-05T22:14:34.118Z,0.73
2022-08-05T22:16:57.895Z,0.60
2022-08-05T22:20:01.621Z,0.90
2022-08-05T22:22:11.894Z,0.50
2022-08-05T22:24:57.344Z,0.90
2022-08-05T22:28:09.869Z,0.60
2022-08-05T22:30:32.255Z,0.77
2022-08-05T22:33:01.889Z,0.37
2022-08-05T22:35:48.046Z,0.80
2022-08-05T22:38:14.813Z,0.70
2022-08-05T22:40:41.761Z,1.10
2022-08-05T22:43:16.073Z,0.80
2022-08-05T22:46:07.261Z,0.40
2022-08-05T22:48:39.210Z,0.70
2022-08-05T22:51:06.960Z,0.70
2022-08-05T22:53:35.956Z,0.53
2022-08-05T22:56:03.311Z,0.57
2022-08-05T22:58:36.537Z,0.70
2022-08-05T23:01:02.982Z,0.70
2022-08-05T23:03:58.010Z,0.50
2022-08-05T23:06:19.029Z,0.57
2022-08-05T23:08:45.627Z,0.70
2022-08-05T23:11:18.783Z,0.50
2022-08-05T23:13:45.887Z,0.50
2022-08-05T23:16:26.218Z,0.67
2022-08-05T23:19:00.115Z,1.10
2022-08-05T23:21:43.133Z,1.00
2022-08-05T23:24:15.053Z,0.70
2022-08-05T23:26:41.764Z,0.67
2022-08-05T23:29:10.669Z,0.83
2022-08-05T23:31:42.325Z,0.47
2022-08-05T23:34:08.793Z,0.73
2022-08-05T23:36:39.951Z,0.73
2022-08-05T23:39:17.252Z,0.50
2022-08-05T23:41:50.633Z,0.97
2022-08-05T23:44:17.064Z,0.63
2022-08-05T23:46:46.609Z,0.70
2022-08-05T23:49:15.793Z,0.40
2022-08-05T23:52:02.607Z,0.50
2022-08-05T23:54:38.104Z,1.53
2022-08-05T23:57:05.972Z,0.90
